sensor_id;sensor_type;location;lat;lon;timestamp;pressure;altitude;pressure_sealevel;temperature;humidity
49102;BME280;34913;47.520;19.186;2023-02-11T00:00:31;101927.84;;;-3.81;81.90
49102;BME280;34913;47.520;19.186;2023-02-11T00:02:57;101926.06;;;-3.89;81.62
49102;BME280;34913;47.520;19.186;2023-02-11T00:05:22;101921.75;;;-3.87;82.08
49102;BME280;34913;47.520;19.186;2023-02-11T00:07:47;101927.88;;;-3.79;82.39
49102;BME280;34913;47.520;19.186;2023-02-11T00:10:13;101918.34;;;-3.82;82.36
49102;BME280;34913;47.520;19.186;2023-02-11T00:12:38;101913.16;;;-3.85;82.68
49102;BME280;34913;47.520;19.186;2023-02-11T00:15:06;101919.19;;;-3.84;82.41
49102;BME280;34913;47.520;19.186;2023-02-11T00:17:32;101910.56;;;-3.83;82.39
49102;BME280;34913;47.520;19.186;2023-02-11T00:19:57;101900.19;;;-3.83;82.45
49102;BME280;34913;47.520;19.186;2023-02-11T00:22:23;101915.75;;;-3.82;82.46
49102;BME280;34913;47.520;19.186;2023-02-11T00:24:48;101910.53;;;-3.86;82.41
49102;BME280;34913;47.520;19.186;2023-02-11T00:27:14;101910.50;;;-3.88;82.66
49102;BME280;34913;47.520;19.186;2023-02-11T00:29:39;101910.56;;;-3.85;82.10
49102;BME280;34913;47.520;19.186;2023-02-11T00:32:05;101904.50;;;-3.85;81.76
49102;BME280;34913;47.520;19.186;2023-02-11T00:34:31;101907.97;;;-3.85;81.46
49102;BME280;34913;47.520;19.186;2023-02-11T00:36:57;101907.91;;;-3.92;82.16
49102;BME280;34913;47.520;19.186;2023-02-11T00:39:23;101910.50;;;-3.89;81.66
49102;BME280;34913;47.520;19.186;2023-02-11T00:41:48;101908.75;;;-3.94;81.07
49102;BME280;34913;47.520;19.186;2023-02-11T00:44:14;101901.81;;;-3.96;81.59
49102;BME280;34913;47.520;19.186;2023-02-11T00:46:39;101910.50;;;-3.88;81.72
49102;BME280;34913;47.520;19.186;2023-02-11T00:49:04;101903.59;;;-3.87;81.11
49102;BME280;34913;47.520;19.186;2023-02-11T00:51:30;101905.31;;;-3.92;81.44
49102;BME280;34913;47.520;19.186;2023-02-11T00:53:55;101901.84;;;-3.95;81.72
49102;BME280;34913;47.520;19.186;2023-02-11T00:56:21;101900.06;;;-3.99;81.08
49102;BME280;34913;47.520;19.186;2023-02-11T00:58:46;101900.06;;;-4.00;81.34
49102;BME280;34913;47.520;19.186;2023-02-11T01:01:13;101899.19;;;-4.01;81.32
49102;BME280;34913;47.520;19.186;2023-02-11T01:03:38;101884.50;;;-3.96;81.03
49102;BME280;34913;47.520;19.186;2023-02-11T01:06:06;101875.03;;;-3.94;81.03
49102;BME280;34913;47.520;19.186;2023-02-11T01:08:32;101868.13;;;-3.95;80.98
49102;BME280;34913;47.520;19.186;2023-02-11T01:11:03;101871.53;;;-3.97;80.75
49102;BME280;34913;47.520;19.186;2023-02-11T01:13:31;101866.41;;;-3.89;81.13
49102;BME280;34913;47.520;19.186;2023-02-11T01:15:57;101865.59;;;-3.84;80.75
49102;BME280;34913;47.520;19.186;2023-02-11T01:18:23;101858.56;;;-3.97;79.90
49102;BME280;34913;47.520;19.186;2023-02-11T01:20:50;101862.84;;;-4.04;80.62
49102;BME280;34913;47.520;19.186;2023-02-11T01:23:15;101855.84;;;-4.18;80.85
49102;BME280;34913;47.520;19.186;2023-02-11T01:25:41;101860.06;;;-4.31;81.65
49102;BME280;34913;47.520;19.186;2023-02-11T01:28:32;101860.03;;;-4.34;82.32
49102;BME280;34913;47.520;19.186;2023-02-11T01:30:56;101860.84;;;-4.38;81.45
49102;BME280;34913;47.520;19.186;2023-02-11T01:33:22;101851.28;;;-4.47;82.68
49102;BME280;34913;47.520;19.186;2023-02-11T01:35:48;101853.06;;;-4.40;83.44
49102;BME280;34913;47.520;19.186;2023-02-11T01:38:20;101851.44;;;-4.29;82.78
49102;BME280;34913;47.520;19.186;2023-02-11T01:40:50;101850.56;;;-4.32;82.67
49102;BME280;34913;47.520;19.186;2023-02-11T01:43:16;101848.84;;;-4.27;82.71
49102;BME280;34913;47.520;19.186;2023-02-11T01:48:17;101850.44;;;-4.43;83.01
49102;BME280;34913;47.520;19.186;2023-02-11T01:50:44;101852.16;;;-4.43;82.74
49102;BME280;34913;47.520;19.186;2023-02-11T01:53:12;101850.47;;;-4.41;82.61
49102;BME280;34913;47.520;19.186;2023-02-11T01:55:58;101846.13;;;-4.44;82.35
49102;BME280;34913;47.520;19.186;2023-02-11T01:58:44;101846.19;;;-4.38;82.36
49102;BME280;34913;47.520;19.186;2023-02-11T02:01:15;101847.03;;;-4.37;82.50
49102;BME280;34913;47.520;19.186;2023-02-11T02:03:45;101840.25;;;-4.23;82.00
49102;BME280;34913;47.520;19.186;2023-02-11T02:06:31;101840.25;;;-4.20;81.28
49102;BME280;34913;47.520;19.186;2023-02-11T02:09:20;101837.66;;;-4.20;81.02
49102;BME280;34913;47.520;19.186;2023-02-11T02:11:46;101842.84;;;-4.20;80.56
49102;BME280;34913;47.520;19.186;2023-02-11T02:14:12;101840.31;;;-4.14;80.35
49102;BME280;34913;47.520;19.186;2023-02-11T02:16:38;101846.28;;;-4.23;79.94
49102;BME280;34913;47.520;19.186;2023-02-11T02:27:39;101836.84;;;-4.16;80.07
49102;BME280;34913;47.520;19.186;2023-02-11T02:33:23;101839.38;;;-4.25;81.15
49102;BME280;34913;47.520;19.186;2023-02-11T02:36:13;101829.81;;;-4.32;80.92
49102;BME280;34913;47.520;19.186;2023-02-11T02:39:20;101829.69;;;-4.46;81.77
49102;BME280;34913;47.520;19.186;2023-02-11T02:41:48;101821.03;;;-4.50;81.47
49102;BME280;34913;47.520;19.186;2023-02-11T02:44:15;101815.78;;;-4.57;81.62
49102;BME280;34913;47.520;19.186;2023-02-11T02:46:40;101826.19;;;-4.51;82.39
49102;BME280;34913;47.520;19.186;2023-02-11T02:49:11;101830.56;;;-4.47;82.88
49102;BME280;34913;47.520;19.186;2023-02-11T02:52:03;101829.56;;;-4.61;82.19
49102;BME280;34913;47.520;19.186;2023-02-11T03:03:53;101813.06;;;-4.71;83.75
49102;BME280;34913;47.520;19.186;2023-02-11T03:06:33;101820.00;;;-4.68;83.06
49102;BME280;34913;47.520;19.186;2023-02-11T03:09:17;101811.22;;;-4.84;83.50
49102;BME280;34913;47.520;19.186;2023-02-11T03:11:44;101810.28;;;-4.92;84.42
49102;BME280;34913;47.520;19.186;2023-02-11T03:14:12;101799.06;;;-4.93;84.66
49102;BME280;34913;47.520;19.186;2023-02-11T03:16:40;101807.81;;;-4.79;84.64
49102;BME280;34913;47.520;19.186;2023-02-11T03:19:23;101799.25;;;-4.73;83.53
49102;BME280;34913;47.520;19.186;2023-02-11T03:21:52;101802.63;;;-4.82;83.66
49102;BME280;34913;47.520;19.186;2023-02-11T03:24:29;101793.03;;;-4.90;83.93
49102;BME280;34913;47.520;19.186;2023-02-11T03:26:58;101799.13;;;-4.82;83.74
49102;BME280;34913;47.520;19.186;2023-02-11T03:29:40;101794.88;;;-4.75;83.32
49102;BME280;34913;47.520;19.186;2023-02-11T03:32:19;101791.44;;;-4.74;83.39
49102;BME280;34913;47.520;19.186;2023-02-11T03:34:57;101789.69;;;-4.80;83.06
49102;BME280;34913;47.520;19.186;2023-02-11T03:42:44;101788.13;;;-4.60;82.90
49102;BME280;34913;47.520;19.186;2023-02-11T03:45:16;101780.38;;;-4.55;82.39
49102;BME280;34913;47.520;19.186;2023-02-11T03:47:48;101775.22;;;-4.55;82.31
49102;BME280;34913;47.520;19.186;2023-02-11T03:50:16;101758.59;;;-4.82;82.31
49102;BME280;34913;47.520;19.186;2023-02-11T03:52:44;101764.38;;;-5.06;83.62
49102;BME280;34913;47.520;19.186;2023-02-11T03:55:15;101750.56;;;-5.08;85.00
49102;BME280;34913;47.520;19.186;2023-02-11T03:57:41;101754.09;;;-4.99;85.02
49102;BME280;34913;47.520;19.186;2023-02-11T04:00:08;101749.78;;;-4.99;85.21
49102;BME280;34913;47.520;19.186;2023-02-11T04:02:35;101749.84;;;-4.94;85.14
49102;BME280;34913;47.520;19.186;2023-02-11T04:05:01;101743.81;;;-4.90;85.41
49102;BME280;34913;47.520;19.186;2023-02-11T04:07:26;101740.44;;;-4.83;85.11
49102;BME280;34913;47.520;19.186;2023-02-11T04:09:52;101737.75;;;-4.95;84.99
49102;BME280;34913;47.520;19.186;2023-02-11T04:12:18;101734.22;;;-5.05;85.01
49102;BME280;34913;47.520;19.186;2023-02-11T04:14:43;101727.28;;;-5.06;85.39
49102;BME280;34913;47.520;19.186;2023-02-11T04:17:09;101732.50;;;-5.01;85.86
49102;BME280;34913;47.520;19.186;2023-02-11T04:19:35;101726.47;;;-5.00;86.09
49102;BME280;34913;47.520;19.186;2023-02-11T04:22:01;101723.94;;;-4.97;86.40
49102;BME280;34913;47.520;19.186;2023-02-11T04:24:27;101723.94;;;-4.94;86.62
49102;BME280;34913;47.520;19.186;2023-02-11T04:26:52;101724.75;;;-5.01;87.03
49102;BME280;34913;47.520;19.186;2023-02-11T04:29:18;101722.13;;;-5.04;86.86
49102;BME280;34913;47.520;19.186;2023-02-11T04:31:44;101721.28;;;-5.02;87.11
49102;BME280;34913;47.520;19.186;2023-02-11T04:34:10;101723.94;;;-4.94;86.76
49102;BME280;34913;47.520;19.186;2023-02-11T04:36:35;101732.63;;;-4.89;86.85
49102;BME280;34913;47.520;19.186;2023-02-11T04:39:01;101722.28;;;-4.85;86.66
49102;BME280;34913;47.520;19.186;2023-02-11T04:41:27;101723.22;;;-4.78;86.37
49102;BME280;34913;47.520;19.186;2023-02-11T04:43:52;101717.25;;;-4.66;85.77
49102;BME280;34913;47.520;19.186;2023-02-11T04:46:17;101718.97;;;-4.67;85.23
49102;BME280;34913;47.520;19.186;2023-02-11T04:48:43;101718.16;;;-4.63;84.25
49102;BME280;34913;47.520;19.186;2023-02-11T04:51:08;101713.03;;;-4.55;83.52
49102;BME280;34913;47.520;19.186;2023-02-11T04:53:34;101720.75;;;-4.58;83.09
49102;BME280;34913;47.520;19.186;2023-02-11T04:55:59;101713.84;;;-4.61;83.26
49102;BME280;34913;47.520;19.186;2023-02-11T04:58:25;101720.75;;;-4.58;83.17
49102;BME280;34913;47.520;19.186;2023-02-11T05:00:51;101722.47;;;-4.59;82.52
49102;BME280;34913;47.520;19.186;2023-02-11T05:03:17;101731.97;;;-4.59;82.35
49102;BME280;34913;47.520;19.186;2023-02-11T05:05:42;101728.53;;;-4.60;82.15
49102;BME280;34913;47.520;19.186;2023-02-11T05:08:09;101728.50;;;-4.61;82.22
49102;BME280;34913;47.520;19.186;2023-02-11T05:10:35;101736.28;;;-4.60;81.41
49102;BME280;34913;47.520;19.186;2023-02-11T05:13:01;101729.38;;;-4.59;82.10
49102;BME280;34913;47.520;19.186;2023-02-11T05:15:27;101727.66;;;-4.60;82.08
49102;BME280;34913;47.520;19.186;2023-02-11T05:17:53;101732.72;;;-4.77;82.64
49102;BME280;34913;47.520;19.186;2023-02-11T05:20:18;101736.16;;;-4.78;83.14
49102;BME280;34913;47.520;19.186;2023-02-11T05:22:44;101729.19;;;-4.87;82.93
49102;BME280;34913;47.520;19.186;2023-02-11T05:25:09;101738.63;;;-4.90;82.50
49102;BME280;34913;47.520;19.186;2023-02-11T05:27:35;101740.34;;;-4.92;83.06
49102;BME280;34913;47.520;19.186;2023-02-11T05:30:01;101736.91;;;-4.91;83.37
49102;BME280;34913;47.520;19.186;2023-02-11T05:32:26;101725.63;;;-4.98;82.98
49102;BME280;34913;47.520;19.186;2023-02-11T05:34:52;101723.09;;;-4.90;83.17
49102;BME280;34913;47.520;19.186;2023-02-11T05:37:17;101721.44;;;-4.85;82.39
49102;BME280;34913;47.520;19.186;2023-02-11T05:39:43;101715.31;;;-4.93;82.48
49102;BME280;34913;47.520;19.186;2023-02-11T05:42:08;101713.50;;;-5.03;82.67
49102;BME280;34913;47.520;19.186;2023-02-11T05:44:34;101718.75;;;-4.97;83.31
49102;BME280;34913;47.520;19.186;2023-02-11T05:46:59;101708.34;;;-5.03;83.21
49102;BME280;34913;47.520;19.186;2023-02-11T05:49:25;101708.34;;;-5.00;83.40
49102;BME280;34913;47.520;19.186;2023-02-11T05:51:50;101704.94;;;-4.96;83.43
49102;BME280;34913;47.520;19.186;2023-02-11T05:54:16;101708.34;;;-5.02;82.92
49102;BME280;34913;47.520;19.186;2023-02-11T05:56:42;101705.78;;;-4.99;83.03
49102;BME280;34913;47.520;19.186;2023-02-11T05:59:07;101708.41;;;-4.94;82.81
49102;BME280;34913;47.520;19.186;2023-02-11T06:01:33;101708.47;;;-4.85;83.12
49102;BME280;34913;47.520;19.186;2023-02-11T06:03:59;101707.66;;;-4.80;82.86
49102;BME280;34913;47.520;19.186;2023-02-11T06:06:24;101710.28;;;-4.75;82.43
49102;BME280;34913;47.520;19.186;2023-02-11T06:08:50;101714.63;;;-4.71;82.29
49102;BME280;34913;47.520;19.186;2023-02-11T06:11:16;101710.31;;;-4.69;81.79
49102;BME280;34913;47.520;19.186;2023-02-11T06:13:42;101712.09;;;-4.63;81.38
49102;BME280;34913;47.520;19.186;2023-02-11T06:16:07;101718.97;;;-4.68;81.27
49102;BME280;34913;47.520;19.186;2023-02-11T06:18:33;101719.81;;;-4.69;81.45
49102;BME280;34913;47.520;19.186;2023-02-11T06:20:59;101707.84;;;-4.57;81.40
49102;BME280;34913;47.520;19.186;2023-02-11T06:23:24;101700.88;;;-4.64;81.64
49102;BME280;34913;47.520;19.186;2023-02-11T06:25:51;101701.75;;;-4.63;81.93
49102;BME280;34913;47.520;19.186;2023-02-11T06:28:17;101700.81;;;-4.68;83.40
49102;BME280;34913;47.520;19.186;2023-02-11T06:30:42;101700.00;;;-4.63;83.94
49102;BME280;34913;47.520;19.186;2023-02-11T06:33:08;101700.06;;;-4.57;84.16
49102;BME280;34913;47.520;19.186;2023-02-11T06:35:33;101698.34;;;-4.55;84.47
49102;BME280;34913;47.520;19.186;2023-02-11T06:38:00;101693.16;;;-4.53;85.01
49102;BME280;34913;47.520;19.186;2023-02-11T06:40:25;101688.88;;;-4.50;85.51
49102;BME280;34913;47.520;19.186;2023-02-11T06:42:51;101697.53;;;-4.43;85.82
49102;BME280;34913;47.520;19.186;2023-02-11T06:45:16;101691.56;;;-4.34;86.54
49102;BME280;34913;47.520;19.186;2023-02-11T06:47:42;101695.94;;;-4.21;86.22
49102;BME280;34913;47.520;19.186;2023-02-11T06:50:10;101691.69;;;-4.04;85.81
49102;BME280;34913;47.520;19.186;2023-02-11T06:52:36;101690.03;;;-3.91;85.59
49102;BME280;34913;47.520;19.186;2023-02-11T06:55:02;101688.31;;;-3.80;85.29
49102;BME280;34913;47.520;19.186;2023-02-11T06:57:29;101691.81;;;-3.72;84.94
49102;BME280;34913;47.520;19.186;2023-02-11T06:59:55;101679.75;;;-3.60;84.85
49102;BME280;34913;47.520;19.186;2023-02-11T07:02:21;101682.31;;;-3.57;84.65
49102;BME280;34913;47.520;19.186;2023-02-11T07:04:46;101678.03;;;-3.43;84.19
49102;BME280;34913;47.520;19.186;2023-02-11T07:07:12;101670.28;;;-3.39;83.95
49102;BME280;34913;47.520;19.186;2023-02-11T07:09:37;101681.53;;;-3.38;83.75
49102;BME280;34913;47.520;19.186;2023-02-11T07:12:03;101683.22;;;-3.45;84.02
49102;BME280;34913;47.520;19.186;2023-02-11T07:14:28;101686.72;;;-3.40;84.32
49102;BME280;34913;47.520;19.186;2023-02-11T07:16:54;101684.09;;;-3.32;84.05
49102;BME280;34913;47.520;19.186;2023-02-11T07:19:19;101678.94;;;-3.23;83.27
49102;BME280;34913;47.520;19.186;2023-02-11T07:21:45;101686.72;;;-3.09;82.75
49102;BME280;34913;47.520;19.186;2023-02-11T07:24:11;101681.53;;;-3.06;82.88
49102;BME280;34913;47.520;19.186;2023-02-11T07:26:37;101692.81;;;-2.99;82.60
49102;BME280;34913;47.520;19.186;2023-02-11T07:29:02;101691.91;;;-2.86;81.53
49102;BME280;34913;47.520;19.186;2023-02-11T07:31:30;101687.59;;;-2.72;81.25
49102;BME280;34913;47.520;19.186;2023-02-11T07:33:58;101684.97;;;-2.60;81.02
49102;BME280;34913;47.520;19.186;2023-02-11T07:36:24;101684.06;;;-2.46;81.31
49102;BME280;34913;47.520;19.186;2023-02-11T07:38:50;101680.63;;;-2.44;81.05
49102;BME280;34913;47.520;19.186;2023-02-11T07:41:17;101672.72;;;-2.22;80.10
49102;BME280;34913;47.520;19.186;2023-02-11T07:43:44;101674.38;;;-1.99;79.70
49102;BME280;34913;47.520;19.186;2023-02-11T07:46:12;101676.03;;;-1.84;78.63
49102;BME280;34913;47.520;19.186;2023-02-11T07:48:37;101676.00;;;-1.76;78.37
49102;BME280;34913;47.520;19.186;2023-02-11T07:51:13;101666.38;;;-1.60;77.46
49102;BME280;34913;47.520;19.186;2023-02-11T07:53:38;101663.75;;;-1.54;77.06
49102;BME280;34913;47.520;19.186;2023-02-11T07:56:05;101658.56;;;-1.56;76.14
49102;BME280;34913;47.520;19.186;2023-02-11T07:58:31;101658.63;;;-1.65;76.85
49102;BME280;34913;47.520;19.186;2023-02-11T08:01:02;101651.66;;;-1.64;76.94
49102;BME280;34913;47.520;19.186;2023-02-11T08:03:28;101655.09;;;-1.58;76.82
49102;BME280;34913;47.520;19.186;2023-02-11T08:05:54;101653.25;;;-1.44;76.37
49102;BME280;34913;47.520;19.186;2023-02-11T08:08:19;101659.22;;;-1.29;75.86
49102;BME280;34913;47.520;19.186;2023-02-11T08:10:44;101648.72;;;-1.19;75.45
49102;BME280;34913;47.520;19.186;2023-02-11T08:13:10;101657.25;;;-0.98;73.68
49102;BME280;34913;47.520;19.186;2023-02-11T08:15:35;101652.72;;;-0.79;73.13
49102;BME280;34913;47.520;19.186;2023-02-11T08:18:01;101649.97;;;-0.63;72.83
49102;BME280;34913;47.520;19.186;2023-02-11T08:20:26;101654.25;;;-0.59;72.95
49102;BME280;34913;47.520;19.186;2023-02-11T08:22:52;101654.31;;;-0.65;73.18
49102;BME280;34913;47.520;19.186;2023-02-11T08:25:17;101656.03;;;-0.61;73.38
49102;BME280;34913;47.520;19.186;2023-02-11T08:27:42;101659.34;;;-0.48;73.12
49102;BME280;34913;47.520;19.186;2023-02-11T08:30:09;101653.28;;;-0.45;72.98
49102;BME280;34913;47.520;19.186;2023-02-11T08:32:34;101648.84;;;-0.39;72.44
49102;BME280;34913;47.520;19.186;2023-02-11T08:35:00;101652.22;;;-0.32;71.99
49102;BME280;34913;47.520;19.186;2023-02-11T08:37:25;101645.28;;;-0.32;72.87
49102;BME280;34913;47.520;19.186;2023-02-11T08:39:51;101650.41;;;-0.22;72.77
49102;BME280;34913;47.520;19.186;2023-02-11T08:42:16;101646.00;;;-0.19;71.33
49102;BME280;34913;47.520;19.186;2023-02-11T08:44:42;101647.78;;;-0.21;71.89
49102;BME280;34913;47.520;19.186;2023-02-11T08:47:08;101645.09;;;-0.16;72.59
49102;BME280;34913;47.520;19.186;2023-02-11T08:49:33;101644.97;;;-0.06;72.03
49102;BME280;34913;47.520;19.186;2023-02-11T08:52:00;101645.06;;;-0.13;72.48
49102;BME280;34913;47.520;19.186;2023-02-11T08:54:29;101640.75;;;-0.14;72.91
49102;BME280;34913;47.520;19.186;2023-02-11T08:56:56;101638.81;;;-0.02;72.23
49102;BME280;34913;47.520;19.186;2023-02-11T08:59:22;101653.41;;;0.15;72.03
49102;BME280;34913;47.520;19.186;2023-02-11T09:01:47;101648.78;;;0.35;71.06
49102;BME280;34913;47.520;19.186;2023-02-11T09:04:13;101647.53;;;0.61;70.20
49102;BME280;34913;47.520;19.186;2023-02-11T09:06:39;101641.81;;;0.91;68.44
49102;BME280;34913;47.520;19.186;2023-02-11T09:09:05;101636.00;;;1.25;66.28
49102;BME280;34913;47.520;19.186;2023-02-11T09:11:33;101630.84;;;1.22;66.81
49102;BME280;34913;47.520;19.186;2023-02-11T09:13:59;101631.16;;;1.51;66.15
49102;BME280;34913;47.520;19.186;2023-02-11T09:16:28;101631.03;;;1.57;66.23
49102;BME280;34913;47.520;19.186;2023-02-11T09:18:58;101627.13;;;1.78;64.93
49102;BME280;34913;47.520;19.186;2023-02-11T09:21:24;101621.38;;;2.03;64.58
49102;BME280;34913;47.520;19.186;2023-02-11T09:23:50;101624.22;;;2.32;62.48
49102;BME280;34913;47.520;19.186;2023-02-11T09:26:21;101622.03;;;2.51;62.51
49102;BME280;34913;47.520;19.186;2023-02-11T09:28:47;101607.84;;;2.60;63.07
49102;BME280;34913;47.520;19.186;2023-02-11T09:31:18;101605.16;;;2.98;61.12
49102;BME280;34913;47.520;19.186;2023-02-11T09:33:45;101612.63;;;3.14;61.10
49102;BME280;34913;47.520;19.186;2023-02-11T09:36:19;101600.50;;;3.42;60.18
49102;BME280;34913;47.520;19.186;2023-02-11T09:38:47;101603.41;;;3.64;59.12
49102;BME280;34913;47.520;19.186;2023-02-11T09:44:20;101603.84;;;4.08;57.11
49102;BME280;34913;47.520;19.186;2023-02-11T09:46:53;101602.72;;;4.16;55.97
49102;BME280;34913;47.520;19.186;2023-02-11T09:49:23;101597.03;;;4.30;56.47
49102;BME280;34913;47.520;19.186;2023-02-11T09:51:56;101591.13;;;4.50;55.35
49102;BME280;34913;47.520;19.186;2023-02-11T09:56:58;101582.09;;;4.85;54.51
49102;BME280;34913;47.520;19.186;2023-02-11T09:59:24;101579.94;;;4.98;52.76
49102;BME280;34913;47.520;19.186;2023-02-11T10:01:54;101581.66;;;4.99;52.89
49102;BME280;34913;47.520;19.186;2023-02-11T10:04:42;101575.22;;;5.08;52.99
49102;BME280;34913;47.520;19.186;2023-02-11T10:07:24;101573.22;;;5.14;51.33
49102;BME280;34913;47.520;19.186;2023-02-11T10:10:20;101569.50;;;5.20;50.71
49102;BME280;34913;47.520;19.186;2023-02-11T10:12:59;101573.50;;;5.07;51.46
49102;BME280;34913;47.520;19.186;2023-02-11T10:23:32;101561.13;;;5.09;50.26
49102;BME280;34913;47.520;19.186;2023-02-11T10:25:58;101569.94;;;5.08;49.75
49102;BME280;34913;47.520;19.186;2023-02-11T10:28:33;101566.22;;;5.13;50.07
49102;BME280;34913;47.520;19.186;2023-02-11T10:31:02;101557.31;;;5.17;49.37
49102;BME280;34913;47.520;19.186;2023-02-11T10:36:20;101550.13;;;5.22;50.03
49102;BME280;34913;47.520;19.186;2023-02-11T10:38:48;101543.03;;;5.24;50.29
49102;BME280;34913;47.520;19.186;2023-02-11T10:41:21;101534.94;;;5.29;50.13
49102;BME280;34913;47.520;19.186;2023-02-11T10:43:49;101530.88;;;5.45;49.52
49102;BME280;34913;47.520;19.186;2023-02-11T10:46:21;101527.75;;;5.57;48.78
49102;BME280;34913;47.520;19.186;2023-02-11T10:48:50;101528.75;;;5.55;49.10
49102;BME280;34913;47.520;19.186;2023-02-11T10:51:32;101519.88;;;5.57;48.53
49102;BME280;34913;47.520;19.186;2023-02-11T10:56:36;101508.34;;;5.60;49.23
49102;BME280;34913;47.520;19.186;2023-02-11T10:59:28;101509.19;;;5.84;49.35
49102;BME280;34913;47.520;19.186;2023-02-11T11:02:15;101506.59;;;6.06;48.74
49102;BME280;34913;47.520;19.186;2023-02-11T11:04:44;101504.41;;;6.17;48.13
49102;BME280;34913;47.520;19.186;2023-02-11T11:07:24;101495.66;;;6.17;48.24
49102;BME280;34913;47.520;19.186;2023-02-11T11:10:10;101484.28;;;6.14;48.16
49102;BME280;34913;47.520;19.186;2023-02-11T11:12:48;101484.03;;;6.21;47.95
49102;BME280;34913;47.520;19.186;2023-02-11T11:15:25;101481.09;;;6.28;47.96
49102;BME280;34913;47.520;19.186;2023-02-11T11:18:13;101482.88;;;6.28;48.29
49102;BME280;34913;47.520;19.186;2023-02-11T11:20:52;101475.09;;;6.25;48.20
49102;BME280;34913;47.520;19.186;2023-02-11T11:23:21;101472.72;;;6.19;48.15
49102;BME280;34913;47.520;19.186;2023-02-11T11:26:11;101462.09;;;5.98;49.04
49102;BME280;34913;47.520;19.186;2023-02-11T11:29:01;101452.34;;;6.00;48.73
49102;BME280;34913;47.520;19.186;2023-02-11T11:31:34;101460.63;;;5.91;48.89
49102;BME280;34913;47.520;19.186;2023-02-11T11:34:31;101448.50;;;6.09;49.06
49102;BME280;34913;47.520;19.186;2023-02-11T11:36:59;101433.13;;;6.40;47.42
49102;BME280;34913;47.520;19.186;2023-02-11T11:39:31;101434.50;;;6.69;46.35
49102;BME280;34913;47.520;19.186;2023-02-11T11:42:27;101431.84;;;6.90;46.10
49102;BME280;34913;47.520;19.186;2023-02-11T11:45:01;101430.06;;;6.90;45.84
49102;BME280;34913;47.520;19.186;2023-02-11T11:48:00;101425.59;;;6.72;46.43
49102;BME280;34913;47.520;19.186;2023-02-11T11:52:53;101427.09;;;7.17;45.44
49102;BME280;34913;47.520;19.186;2023-02-11T11:55:55;101423.16;;;7.25;44.66
49102;BME280;34913;47.520;19.186;2023-02-11T11:58:15;101429.25;;;7.46;44.06
49102;BME280;34913;47.520;19.186;2023-02-11T12:01:04;101425.91;;;7.43;44.24
49102;BME280;34913;47.520;19.186;2023-02-11T12:26:19;101350.16;;;7.43;43.23
49102;BME280;34913;47.520;19.186;2023-02-11T12:45:38;101329.84;;;7.63;40.79
49102;BME280;34913;47.520;19.186;2023-02-11T12:56:49;101321.06;;;7.62;42.25
49102;BME280;34913;47.520;19.186;2023-02-11T12:59:25;101315.38;;;7.52;41.08
49102;BME280;34913;47.520;19.186;2023-02-11T13:01:54;101305.56;;;7.54;41.18
49102;BME280;34913;47.520;19.186;2023-02-11T13:04:42;101311.03;;;7.51;40.98
49102;BME280;34913;47.520;19.186;2023-02-11T13:07:16;101315.75;;;7.62;41.32
49102;BME280;34913;47.520;19.186;2023-02-11T13:09:44;101311.66;;;7.74;41.14
49102;BME280;34913;47.520;19.186;2023-02-11T13:12:13;101299.41;;;7.90;40.24
49102;BME280;34913;47.520;19.186;2023-02-11T13:15:02;101298.84;;;7.83;38.99
49102;BME280;34913;47.520;19.186;2023-02-11T13:17:34;101298.94;;;7.99;38.60
49102;BME280;34913;47.520;19.186;2023-02-11T13:20:38;101286.50;;;7.84;39.36
49102;BME280;34913;47.520;19.186;2023-02-11T13:30:57;101268.44;;;7.92;37.42
49102;BME280;34913;47.520;19.186;2023-02-11T13:38:26;101260.28;;;7.79;37.42
49102;BME280;34913;47.520;19.186;2023-02-11T13:43:27;101259.44;;;7.62;37.73
49102;BME280;34913;47.520;19.186;2023-02-11T13:45:59;101268.03;;;7.65;37.59
49102;BME280;34913;47.520;19.186;2023-02-11T13:48:31;101261.59;;;7.53;38.76
49102;BME280;34913;47.520;19.186;2023-02-11T13:51:05;101268.97;;;7.47;38.50
49102;BME280;34913;47.520;19.186;2023-02-11T13:54:01;101265.31;;;7.49;38.94
49102;BME280;34913;47.520;19.186;2023-02-11T13:56:35;101268.97;;;7.47;38.50
49102;BME280;34913;47.520;19.186;2023-02-11T14:11:00;101279.06;;;7.56;39.08
49102;BME280;34913;47.520;19.186;2023-02-11T14:13:28;101263.13;;;7.57;39.33
49102;BME280;34913;47.520;19.186;2023-02-11T14:16:09;101265.84;;;7.56;38.65
49102;BME280;34913;47.520;19.186;2023-02-11T14:23:45;101252.00;;;7.34;39.32
49102;BME280;34913;47.520;19.186;2023-02-11T14:28:53;101265.94;;;7.18;40.69
49102;BME280;34913;47.520;19.186;2023-02-11T14:35:30;101281.91;;;6.98;40.99
49102;BME280;34913;47.520;19.186;2023-02-11T14:37:44;101287.19;;;6.98;41.09
49102;BME280;34913;47.520;19.186;2023-02-11T14:42:56;101288.81;;;7.00;41.57
49102;BME280;34913;47.520;19.186;2023-02-11T14:45:27;101288.69;;;7.04;41.48
49102;BME280;34913;47.520;19.186;2023-02-11T14:48:02;101291.31;;;7.04;41.24
49102;BME280;34913;47.520;19.186;2023-02-11T14:50:40;101283.41;;;7.04;41.04
49102;BME280;34913;47.520;19.186;2023-02-11T14:53:14;101281.25;;;6.93;41.62
49102;BME280;34913;47.520;19.186;2023-02-11T14:55:43;101273.56;;;6.88;41.59
49102;BME280;34913;47.520;19.186;2023-02-11T15:03:39;101254.78;;;6.94;42.08
49102;BME280;34913;47.520;19.186;2023-02-11T15:06:22;101246.56;;;7.00;41.61
49102;BME280;34913;47.520;19.186;2023-02-11T15:08:54;101245.44;;;7.06;41.68
49102;BME280;34913;47.520;19.186;2023-02-11T15:11:23;101239.31;;;6.87;43.32
49102;BME280;34913;47.520;19.186;2023-02-11T15:13:50;101241.09;;;6.86;42.18
49102;BME280;34913;47.520;19.186;2023-02-11T15:16:22;101232.41;;;6.84;42.18
49102;BME280;34913;47.520;19.186;2023-02-11T15:18:55;101221.50;;;6.73;42.59
49102;BME280;34913;47.520;19.186;2023-02-11T15:21:28;101229.72;;;6.67;43.22